createdAt,value
2024-03-01T00:01:41.084Z,36.15
2024-03-01T00:04:49.165Z,36.13
2024-03-01T00:07:56.771Z,36.25
2024-03-01T00:11:03.458Z,36.18
2024-03-01T00:14:08.591Z,35.55
2024-03-01T00:17:13.082Z,35.62
2024-03-01T00:20:24.011Z,36.18
2024-03-01T00:23:32.420Z,35.76
2024-03-01T00:26:38.096Z,36.17
2024-03-01T00:29:44.961Z,35.72
2024-03-01T00:32:54.206Z,35.76
2024-03-01T00:36:08.747Z,35.63
2024-03-01T00:39:15.914Z,35.83
2024-03-01T00:42:21.515Z,35.91
2024-03-01T00:45:30.107Z,35.70
2024-03-01T00:48:36.286Z,35.64
2024-03-01T00:51:46.381Z,35.94
2024-03-01T00:54:55.814Z,35.86
2024-03-01T00:58:02.791Z,36.08
2024-03-01T01:01:07.811Z,35.93
2024-03-01T01:04:14.310Z,35.78
2024-03-01T01:07:22.975Z,36.08
2024-03-01T01:10:30.653Z,36.38
2024-03-01T01:13:36.064Z,35.92
2024-03-01T01:16:44.061Z,35.92
2024-03-01T01:19:50.040Z,36.40
2024-03-01T01:22:56.235Z,36.63
2024-03-01T01:26:01.546Z,36.25
2024-03-01T01:29:07.226Z,36.10
2024-03-01T01:32:12.791Z,36.16
2024-03-01T01:35:18.226Z,36.14
2024-03-01T01:38:26.535Z,36.08
2024-03-01T01:41:31.240Z,36.50
2024-03-01T01:44:36.963Z,36.43
2024-03-01T01:47:43.596Z,36.22
2024-03-01T01:50:52.359Z,36.35
2024-03-01T01:53:59.052Z,36.34
2024-03-01T01:57:05.346Z,36.02
2024-03-01T02:00:11.943Z,36.49
2024-03-01T02:03:21.120Z,36.34
2024-03-01T02:06:29.870Z,35.98
2024-03-01T02:09:38.001Z,35.99
2024-03-01T02:12:44.083Z,36.29
2024-03-01T02:15:53.151Z,36.31
2024-03-01T02:19:00.177Z,36.15
2024-03-01T02:22:13.698Z,36.49
2024-03-01T02:25:25.608Z,36.03
2024-03-01T02:28:33.882Z,36.25
2024-03-01T02:31:39.567Z,35.87
2024-03-01T02:34:43.272Z,36.32
2024-03-01T02:37:51.265Z,35.76
2024-03-01T02:40:55.935Z,35.90
2024-03-01T02:43:59.163Z,35.90
2024-03-01T02:47:05.184Z,36.19
2024-03-01T02:50:14.781Z,35.98
2024-03-01T02:53:23.549Z,35.89
2024-03-01T02:56:29.479Z,35.94
2024-03-01T02:59:35.127Z,35.79
2024-03-01T03:02:43.911Z,35.56
2024-03-01T03:05:51.227Z,35.65
2024-03-01T03:08:59.346Z,35.94
2024-03-01T03:12:08.887Z,36.18
2024-03-01T03:15:17.601Z,35.86
2024-03-01T03:18:23.957Z,35.99
2024-03-01T03:21:27.426Z,36.20
2024-03-01T03:24:33.609Z,36.00
2024-03-01T03:27:41.127Z,35.84
2024-03-01T03:30:49.715Z,35.81
2024-03-01T03:34:00.365Z,36.05
2024-03-01T03:37:05.850Z,35.74
2024-03-01T03:40:15.745Z,36.04
2024-03-01T03:43:25.794Z,35.79
2024-03-01T03:46:32.018Z,35.77
2024-03-01T03:49:38.927Z,35.86
2024-03-01T03:52:46.197Z,35.42
2024-03-01T03:55:54.047Z,35.57
2024-03-01T03:59:03.719Z,35.86
2024-03-01T04:02:11.233Z,35.80
2024-03-01T04:05:18.877Z,35.67
2024-03-01T04:08:25.442Z,35.92
2024-03-01T04:11:34.913Z,35.82
2024-03-01T04:14:45.432Z,35.66
2024-03-01T04:17:52.651Z,35.95
2024-03-01T04:21:00.602Z,36.10
2024-03-01T04:24:11.492Z,36.15
2024-03-01T04:27:17.401Z,36.22
2024-03-01T04:30:25.534Z,36.21
2024-03-01T04:33:31.722Z,36.73
2024-03-01T04:36:37.479Z,36.78
2024-03-01T04:39:44.217Z,36.57
2024-03-01T04:42:51.823Z,37.07
2024-03-01T04:46:01.259Z,35.95
2024-03-01T04:49:05.580Z,36.09
2024-03-01T04:52:13.576Z,35.28
2024-03-01T04:55:18.245Z,35.95
2024-03-01T04:58:25.526Z,35.34
2024-03-01T05:01:33.109Z,35.06
2024-03-01T05:04:39.355Z,35.27
2024-03-01T05:07:49.860Z,35.19
2024-03-01T05:10:55.544Z,34.54
2024-03-01T05:14:00.121Z,34.32
2024-03-01T05:17:09.224Z,34.38
2024-03-01T05:20:23.142Z,35.39
2024-03-01T05:23:30.956Z,35.82
2024-03-01T05:26:39.879Z,35.61
2024-03-01T05:29:48.120Z,35.56
2024-03-01T05:33:01.281Z,36.03
2024-03-01T05:36:08.260Z,36.06
2024-03-01T05:39:22.655Z,35.83
2024-03-01T05:42:32.818Z,35.53
2024-03-01T05:45:40.160Z,35.89
2024-03-01T05:48:52.772Z,36.00
2024-03-01T05:52:01.560Z,35.54
2024-03-01T05:55:12.826Z,35.65
2024-03-01T05:58:22.054Z,36.09
2024-03-01T06:01:29.241Z,35.51
2024-03-01T06:04:35.632Z,35.76
2024-03-01T06:07:44.018Z,35.63
2024-03-01T06:10:50.793Z,35.71
2024-03-01T06:14:01.573Z,35.66
2024-03-01T06:17:11.513Z,35.98
2024-03-01T06:20:24.112Z,35.74
2024-03-01T06:23:33.762Z,35.67
2024-03-01T06:26:44.211Z,35.67
2024-03-01T06:29:52.060Z,35.78
2024-03-01T06:32:59.016Z,36.31
2024-03-01T06:36:12.390Z,35.55
2024-03-01T06:39:21.997Z,35.55
2024-03-01T06:42:29.611Z,35.94
2024-03-01T06:45:39.236Z,35.65
2024-03-01T06:48:46.991Z,35.69
2024-03-01T06:52:01.606Z,36.22
2024-03-01T06:55:11.229Z,35.54
2024-03-01T06:58:16.498Z,35.73
2024-03-01T07:01:26.336Z,35.43
2024-03-01T07:04:35.987Z,35.42
2024-03-01T07:07:46.405Z,35.78
2024-03-01T07:10:54.012Z,35.79
2024-03-01T07:14:02.086Z,35.65
2024-03-01T07:17:10.179Z,35.59
2024-03-01T07:20:17.473Z,35.61
2024-03-01T07:23:28.411Z,35.39
2024-03-01T07:26:37.529Z,35.46
2024-03-01T07:29:43.651Z,35.82
2024-03-01T07:32:50.701Z,35.30
2024-03-01T07:35:58.532Z,35.65
2024-03-01T07:39:08.249Z,35.76
2024-03-01T07:42:16.394Z,35.58
2024-03-01T07:45:24.480Z,36.12
2024-03-01T07:48:36.340Z,35.95
2024-03-01T07:51:47.550Z,36.11
2024-03-01T07:54:56.660Z,35.62
2024-03-01T07:58:04.001Z,35.83
2024-03-01T08:01:13.780Z,35.81
2024-03-01T08:04:24.044Z,35.57
2024-03-01T08:07:27.158Z,35.51
2024-03-01T08:10:44.677Z,35.30
2024-03-01T08:13:56.461Z,35.24
2024-03-01T08:17:07.328Z,35.42
2024-03-01T08:20:30.089Z,35.83
2024-03-01T08:23:42.114Z,35.38
2024-03-01T08:26:49.705Z,35.48
2024-03-01T08:29:57.371Z,35.90
2024-03-01T08:33:06.535Z,35.85
2024-03-01T08:36:15.474Z,36.08
2024-03-01T08:39:24.394Z,36.16
2024-03-01T08:42:41.080Z,36.21
2024-03-01T08:45:51.465Z,35.84
2024-03-01T08:49:04.015Z,36.23
2024-03-01T08:52:29.132Z,36.29
2024-03-01T08:55:56.090Z,35.77
2024-03-01T08:59:14.810Z,35.78
2024-03-01T09:02:47.544Z,35.89
2024-03-01T09:05:58.000Z,35.92
2024-03-01T09:09:09.230Z,36.17
2024-03-01T09:12:27.119Z,35.87
2024-03-01T09:15:46.841Z,35.91
2024-03-01T09:18:58.028Z,35.59
2024-03-01T09:22:08.045Z,35.57
2024-03-01T09:25:58.315Z,35.33
2024-03-01T09:29:04.719Z,35.90
2024-03-01T09:32:14.894Z,35.67
2024-03-01T09:35:22.501Z,36.20
2024-03-01T09:38:30.914Z,36.18
2024-03-01T09:42:02.701Z,36.02
2024-03-01T09:45:42.190Z,36.12
2024-03-01T09:49:06.536Z,36.12
2024-03-01T09:52:30.004Z,35.84
2024-03-01T09:55:54.718Z,35.88
2024-03-01T09:59:15.813Z,35.49
2024-03-01T10:02:41.759Z,35.61
2024-03-01T10:06:09.754Z,35.92
2024-03-01T10:09:30.109Z,35.94
2024-03-01T10:12:53.418Z,35.99
2024-03-01T10:16:12.532Z,35.95
2024-03-01T10:19:36.211Z,35.34
2024-03-01T10:23:02.737Z,35.26
2024-03-01T10:26:16.982Z,35.18
2024-03-01T10:29:35.611Z,35.30
2024-03-01T10:32:58.353Z,35.53
2024-03-01T10:36:17.089Z,35.62
2024-03-01T10:39:40.966Z,35.46
2024-03-01T10:43:01.570Z,35.61
2024-03-01T10:46:18.619Z,35.12
2024-03-01T10:49:34.650Z,35.07
2024-03-01T10:52:45.950Z,34.97
2024-03-01T10:56:01.648Z,35.52
2024-03-01T10:59:18.009Z,35.10
2024-03-01T11:02:33.954Z,35.51
2024-03-01T11:05:50.583Z,34.90
2024-03-01T11:09:02.813Z,35.56
2024-03-01T11:12:25.883Z,35.27
2024-03-01T11:15:37.372Z,35.13
2024-03-01T11:18:52.731Z,34.97
2024-03-01T11:22:15.147Z,34.93
2024-03-01T11:25:26.885Z,35.40
2024-03-01T11:28:40.784Z,34.89
2024-03-01T11:31:52.248Z,34.83
2024-03-01T11:35:10.825Z,34.78
2024-03-01T11:38:33.699Z,34.96
2024-03-01T11:41:54.811Z,34.65
2024-03-01T11:45:11.148Z,34.64
2024-03-01T11:48:39.786Z,35.23
2024-03-01T11:51:58.774Z,35.20
2024-03-01T11:55:12.735Z,35.14
2024-03-01T11:58:34.820Z,35.16
2024-03-01T12:01:57.086Z,34.70
2024-03-01T12:05:22.514Z,34.74
2024-03-01T12:08:40.082Z,34.56
2024-03-01T12:12:06.497Z,35.11
2024-03-01T12:15:20.527Z,35.06
2024-03-01T12:18:40.055Z,34.70
2024-03-01T12:22:07.000Z,34.56
2024-03-01T12:25:19.100Z,35.06
2024-03-01T12:28:46.635Z,34.58
2024-03-01T12:32:04.494Z,35.06
2024-03-01T12:35:34.783Z,34.73
2024-03-01T12:38:48.012Z,34.95
2024-03-01T12:42:08.315Z,35.19
2024-03-01T12:45:33.947Z,35.67
2024-03-01T12:48:56.087Z,35.08
2024-03-01T12:52:16.257Z,35.34
2024-03-01T12:55:31.604Z,35.24
2024-03-01T12:58:50.461Z,35.18
2024-03-01T13:02:13.097Z,35.42
2024-03-01T13:05:31.314Z,35.78
2024-03-01T13:08:48.252Z,35.73
2024-03-01T13:11:59.485Z,35.65
2024-03-01T13:15:17.363Z,35.32
2024-03-01T13:18:31.681Z,35.38
2024-03-01T13:21:50.560Z,35.22
2024-03-01T13:25:05.263Z,35.63
2024-03-01T13:28:19.261Z,35.14
2024-03-01T13:31:36.053Z,35.11
2024-03-01T13:34:46.761Z,35.39
2024-03-01T13:38:03.144Z,35.30
2024-03-01T13:41:24.971Z,35.72
2024-03-01T13:44:42.732Z,35.86
2024-03-01T13:47:54.683Z,36.27
2024-03-01T13:51:05.974Z,35.96
2024-03-01T13:54:16.387Z,35.78
2024-03-01T13:57:31.663Z,35.71
2024-03-01T14:00:41.329Z,35.48
2024-03-01T14:04:00.840Z,35.58
2024-03-01T14:07:07.606Z,35.60
2024-03-01T14:10:17.687Z,36.03
2024-03-01T14:13:33.523Z,36.22
2024-03-01T14:16:43.714Z,35.78
2024-03-01T14:19:48.226Z,35.81
2024-03-01T14:22:57.013Z,35.65
2024-03-01T14:26:04.117Z,35.75
2024-03-01T14:29:11.675Z,36.21
2024-03-01T14:32:17.140Z,36.63
2024-03-01T14:35:24.746Z,36.35
2024-03-01T14:38:30.773Z,36.43
2024-03-01T14:41:42.063Z,36.76
2024-03-01T14:44:54.202Z,36.39
2024-03-01T14:48:00.708Z,36.84
2024-03-01T14:51:11.604Z,36.33
2024-03-01T14:54:19.432Z,36.39
2024-03-01T14:57:24.865Z,36.79
2024-03-01T15:00:34.452Z,36.74
2024-03-01T15:03:39.139Z,36.85
2024-03-01T15:06:43.488Z,36.41
2024-03-01T15:09:51.109Z,36.38
2024-03-01T15:12:55.895Z,36.73
2024-03-01T15:16:02.869Z,36.87
2024-03-01T15:19:09.647Z,36.56
2024-03-01T15:22:15.889Z,36.21
2024-03-01T15:25:29.200Z,36.04
2024-03-01T15:28:38.773Z,35.55
2024-03-01T15:31:49.714Z,34.72
2024-03-01T15:34:57.681Z,34.61
2024-03-01T15:38:05.135Z,34.95
2024-03-01T15:41:10.504Z,34.51
2024-03-01T15:44:14.683Z,34.67
2024-03-01T15:47:27.266Z,34.83
2024-03-01T15:50:31.863Z,35.21
2024-03-01T15:53:36.675Z,35.32
2024-03-01T15:56:44.023Z,35.24
2024-03-01T15:59:49.922Z,35.21
2024-03-01T16:03:03.663Z,35.44
2024-03-01T16:06:09.505Z,35.32
2024-03-01T16:09:17.381Z,35.52
2024-03-01T16:12:27.313Z,35.06
2024-03-01T16:15:34.529Z,34.96
2024-03-01T16:18:43.797Z,35.06
2024-03-01T16:21:48.544Z,34.88
2024-03-01T16:24:57.381Z,34.77
2024-03-01T16:28:03.458Z,34.92
2024-03-01T16:31:09.917Z,34.58
2024-03-01T16:34:21.503Z,34.64
2024-03-01T16:37:28.311Z,34.71
2024-03-01T16:40:37.466Z,35.13
2024-03-01T16:43:49.463Z,34.91
2024-03-01T16:46:57.416Z,34.74
2024-03-01T16:50:07.612Z,34.73
2024-03-01T16:53:13.785Z,35.00
2024-03-01T16:56:20.290Z,34.95
2024-03-01T16:59:29.800Z,34.69
2024-03-01T17:02:38.990Z,34.59
2024-03-01T17:05:48.184Z,34.86
2024-03-01T17:08:56.258Z,34.69
2024-03-01T17:12:03.698Z,34.84
2024-03-01T17:15:18.136Z,34.68
2024-03-01T17:18:25.489Z,34.81
2024-03-01T17:21:37.488Z,34.85
2024-03-01T17:24:43.822Z,34.85
2024-03-01T17:27:53.341Z,34.80
2024-03-01T17:31:06.544Z,34.81
2024-03-01T17:34:13.233Z,34.97
2024-03-01T17:37:25.968Z,34.65
2024-03-01T17:40:33.348Z,34.80
2024-03-01T17:43:38.915Z,34.69
2024-03-01T17:46:43.750Z,34.66
2024-03-01T17:49:48.479Z,34.83
2024-03-01T17:52:55.229Z,34.64
2024-03-01T17:56:01.101Z,34.75
2024-03-01T17:59:05.587Z,34.72
2024-03-01T18:02:11.167Z,34.88
2024-03-01T18:05:16.378Z,34.97
2024-03-01T18:08:22.498Z,34.72
2024-03-01T18:11:30.010Z,35.20
2024-03-01T18:14:38.984Z,35.11
2024-03-01T18:17:45.552Z,35.03
2024-03-01T18:20:50.923Z,35.85
2024-03-01T18:23:55.396Z,36.19
2024-03-01T18:27:00.812Z,36.56
2024-03-01T18:30:05.495Z,36.46
2024-03-01T18:33:09.963Z,35.66
2024-03-01T18:36:14.770Z,36.13
2024-03-01T18:39:23.642Z,36.36
2024-03-01T18:42:29.694Z,36.54
2024-03-01T18:45:37.027Z,36.34
2024-03-01T18:48:42.488Z,36.88
2024-03-01T18:51:49.471Z,36.67
2024-03-01T18:54:56.407Z,36.57
2024-03-01T18:58:01.675Z,36.89
2024-03-01T19:01:15.264Z,36.37
2024-03-01T19:04:24.240Z,36.40
2024-03-01T19:07:33.123Z,36.76
2024-03-01T19:10:41.979Z,36.96
2024-03-01T19:13:51.469Z,36.75
2024-03-01T19:17:01.778Z,36.66
2024-03-01T19:20:09.418Z,36.75
2024-03-01T19:23:14.954Z,37.12
2024-03-01T19:26:23.085Z,36.37
2024-03-01T19:29:30.569Z,36.69
2024-03-01T19:32:39.631Z,36.74
2024-03-01T19:35:44.292Z,36.33
2024-03-01T19:38:52.984Z,36.67
2024-03-01T19:42:00.226Z,36.52
2024-03-01T19:45:09.242Z,36.84
2024-03-01T19:48:14.149Z,36.59
2024-03-01T19:51:21.912Z,37.06
2024-03-01T19:54:28.285Z,36.86
2024-03-01T19:57:37.733Z,37.12
2024-03-01T20:00:47.653Z,36.68
2024-03-01T20:03:54.886Z,37.35
2024-03-01T20:07:04.894Z,37.02
2024-03-01T20:10:14.634Z,37.22
2024-03-01T20:13:23.608Z,37.18
2024-03-01T20:16:31.016Z,36.90
2024-03-01T20:19:35.464Z,36.74
2024-03-01T20:22:40.720Z,36.73
2024-03-01T20:25:48.724Z,37.10
2024-03-01T20:28:57.281Z,36.74
2024-03-01T20:32:07.537Z,36.66
2024-03-01T20:35:14.650Z,37.06
2024-03-01T20:38:20.585Z,36.90
2024-03-01T20:41:26.837Z,36.90
2024-03-01T20:44:32.921Z,37.22
2024-03-01T20:47:39.243Z,37.15
2024-03-01T20:50:42.942Z,37.24
2024-03-01T20:53:51.014Z,36.87
2024-03-01T20:57:00.076Z,37.23
2024-03-01T21:00:11.768Z,36.76
2024-03-01T21:03:20.081Z,37.01
2024-03-01T21:06:32.005Z,37.39
2024-03-01T21:09:39.459Z,36.86
2024-03-01T21:12:46.480Z,37.24
2024-03-01T21:15:51.751Z,37.05
2024-03-01T21:18:55.663Z,36.81
2024-03-01T21:25:07.004Z,37.02
2024-03-01T21:28:10.163Z,36.50
2024-03-01T21:31:17.643Z,36.75
2024-03-01T21:34:24.605Z,36.64
2024-03-01T21:37:29.737Z,36.31
2024-03-01T21:40:32.981Z,36.22
2024-03-01T21:43:36.998Z,36.58
2024-03-01T21:46:41.810Z,36.26
2024-03-01T21:49:45.729Z,36.07
2024-03-01T21:52:51.171Z,36.07
2024-03-01T21:55:56.560Z,36.11
2024-03-01T21:59:05.590Z,36.18
2024-03-01T22:02:16.140Z,36.26
2024-03-01T22:05:26.604Z,36.29
2024-03-01T22:08:30.647Z,36.35
2024-03-01T22:11:42.648Z,35.99
2024-03-01T22:14:49.617Z,36.13
2024-03-01T22:17:58.244Z,36.08
2024-03-01T22:21:05.815Z,36.06
2024-03-01T22:24:13.452Z,36.19
2024-03-01T22:27:22.982Z,35.95
2024-03-01T22:30:29.060Z,36.05
2024-03-01T22:33:41.195Z,35.84
2024-03-01T22:36:49.897Z,35.70
2024-03-01T22:39:56.508Z,35.74
2024-03-01T22:43:01.586Z,35.79
2024-03-01T22:46:11.399Z,35.71
2024-03-01T22:49:24.202Z,35.39
2024-03-01T22:52:38.277Z,35.53
2024-03-01T22:55:48.373Z,35.61
2024-03-01T22:58:57.917Z,35.64
2024-03-01T23:02:09.854Z,35.82
2024-03-01T23:05:50.037Z,35.84
2024-03-01T23:08:58.805Z,35.69
2024-03-01T23:12:10.779Z,35.31
2024-03-01T23:15:21.751Z,35.36
2024-03-01T23:18:28.208Z,35.21
2024-03-01T23:21:37.688Z,35.15
2024-03-01T23:24:44.728Z,35.54
2024-03-01T23:27:57.386Z,35.48
2024-03-01T23:31:06.123Z,35.22
2024-03-01T23:34:19.568Z,35.43
2024-03-01T23:37:28.185Z,35.16
2024-03-01T23:40:32.990Z,35.61
2024-03-01T23:43:38.103Z,35.17
2024-03-01T23:46:46.661Z,35.21
2024-03-01T23:49:55.262Z,35.53
2024-03-01T23:53:04.937Z,35.33
2024-03-01T23:56:12.463Z,35.10
2024-03-01T23:59:22.205Z,35.01
